Time;durP1;ratioP1;P1;durP2;ratioP2;P2;SDS_P1;SDS_P2;PMS_P1;PMS_P2;Temp;Humidity;BMP_temperature;BMP_pressure;BME280_temperature;BME280_humidity;BME280_pressure;Samples;Min_cycle;Max_cycle;Signal;HPM_P1;HPM_P2
2022/04/23 00:00:22;;;;;;;2.55;2.35;;;13.80;63.00;;;;;;5106713;28;20575;-61
2022/04/23 00:02:48;;;;;;;4.40;1.85;;;13.70;63.10;;;;;;5096109;28;20366;-61
2022/04/23 00:05:14;;;;;;;2.13;1.80;;;13.80;63.20;;;;;;5095881;28;20505;-61
2022/04/23 00:07:40;;;;;;;6.35;1.80;;;13.70;63.40;;;;;;5089766;28;20099;-61
2022/04/23 00:10:08;;;;;;;3.10;2.30;;;13.70;63.60;;;;;;5085204;28;20059;-67
2022/04/23 00:12:35;;;;;;;3.45;2.30;;;13.70;63.70;;;;;;5095427;28;20031;-66
2022/04/23 00:15:01;;;;;;;3.03;2.22;;;13.70;63.90;;;;;;5101654;28;20505;-66
2022/04/23 00:17:26;;;;;;;2.95;2.30;;;13.60;64.00;;;;;;5092996;28;20132;-66
2022/04/23 00:19:53;;;;;;;5.13;2.22;;;13.60;63.90;;;;;;5100369;28;20108;-66
2022/04/23 00:22:19;;;;;;;2.97;1.95;;;13.60;64.00;;;;;;5100753;28;20039;-66
2022/04/23 00:24:45;;;;;;;4.70;2.80;;;13.60;64.00;;;;;;5081977;28;20041;-61
2022/04/23 00:27:11;;;;;;;3.88;1.88;;;13.60;64.10;;;;;;5086725;28;20483;-60
2022/04/23 00:29:37;;;;;;;2.97;2.22;;;13.60;64.10;;;;;;5088572;28;20021;-61
2022/04/23 00:32:03;;;;;;;6.18;2.50;;;13.50;64.20;;;;;;5088205;28;20523;-61
2022/04/23 00:34:29;;;;;;;3.03;1.98;;;13.50;64.50;;;;;;5093753;28;20039;-61
2022/04/23 00:36:54;;;;;;;2.80;2.10;;;13.50;64.40;;;;;;5098185;28;20023;-61
2022/04/23 00:39:20;;;;;;;3.08;2.08;;;13.50;64.50;;;;;;5095482;28;20035;-61
2022/04/23 00:41:46;;;;;;;2.10;1.75;;;13.40;64.70;;;;;;5096870;28;20057;-61
2022/04/23 00:44:14;;;;;;;1.98;1.75;;;13.40;64.80;;;;;;5089920;28;20756;-61
2022/04/23 00:46:39;;;;;;;5.35;2.35;;;13.40;65.20;;;;;;5093607;28;20050;-61
2022/04/23 00:49:06;;;;;;;3.45;2.72;;;13.40;65.30;;;;;;5100054;28;20039;-66
2022/04/23 00:51:35;;;;;;;4.32;2.50;;;13.30;65.60;;;;;;5104776;28;20106;-66
2022/04/23 00:54:07;;;;;;;2.72;2.50;;;13.30;65.40;;;;;;5103718;28;20027;-66
2022/04/23 00:56:34;;;;;;;3.33;2.72;;;13.30;66.30;;;;;;5095335;28;20065;-67
2022/04/23 00:59:06;;;;;;;2.97;2.67;;;13.30;65.80;;;;;;5096086;28;20519;-61
2022/04/23 01:01:32;;;;;;;2.75;2.38;;;13.30;65.70;;;;;;5077058;28;20049;-66
2022/04/23 01:03:57;;;;;;;3.78;3.22;;;13.30;65.80;;;;;;5102387;28;20043;-66
2022/04/23 01:06:24;;;;;;;2.90;2.28;;;13.20;65.80;;;;;;5094642;28;20111;-66
2022/04/23 01:08:50;;;;;;;6.03;3.10;;;13.20;65.90;;;;;;5090490;28;20060;-61
2022/04/23 01:11:16;;;;;;;4.70;2.65;;;13.20;66.00;;;;;;5086746;28;20055;-62
2022/04/23 01:13:45;;;;;;;5.07;3.30;;;13.20;65.90;;;;;;5100298;28;20431;-66
2022/04/23 01:16:11;;;;;;;4.28;1.90;;;13.20;66.20;;;;;;5082336;28;20051;-61
2022/04/23 01:18:41;;;;;;;3.38;2.95;;;13.20;66.30;;;;;;5097493;28;20359;-66
2022/04/23 01:21:10;;;;;;;5.00;3.20;;;13.10;66.40;;;;;;5096311;28;20028;-66
2022/04/23 01:23:40;;;;;;;4.00;3.50;;;13.10;66.60;;;;;;5082530;28;20395;-66
2022/04/23 01:26:07;;;;;;;4.30;2.78;;;13.10;66.60;;;;;;5095856;28;20028;-66
2022/04/23 01:28:35;;;;;;;5.13;2.72;;;13.10;66.70;;;;;;5087115;28;20051;-66
2022/04/23 01:31:00;;;;;;;7.60;3.25;;;13.10;67.00;;;;;;5084048;28;20060;-67
2022/04/23 01:33:26;;;;;;;8.18;4.25;;;13.10;67.10;;;;;;5091912;28;20059;-66
2022/04/23 01:35:52;;;;;;;3.80;2.95;;;13.00;67.20;;;;;;5094063;28;20020;-66
2022/04/23 01:38:18;;;;;;;4.13;3.22;;;13.00;67.30;;;;;;5096134;28;20552;-66
2022/04/23 01:40:44;;;;;;;5.80;3.13;;;13.00;67.40;;;;;;5094024;28;20555;-66
2022/04/23 01:43:10;;;;;;;4.60;3.33;;;13.00;67.30;;;;;;5087823;28;20047;-66
2022/04/23 01:45:37;;;;;;;4.70;3.38;;;13.00;67.50;;;;;;5088588;28;20032;-61
2022/04/23 01:48:03;;;;;;;6.50;3.67;;;13.10;67.50;;;;;;5075559;28;20044;-61
2022/04/23 01:50:28;;;;;;;4.68;3.22;;;13.10;67.60;;;;;;5069801;28;20055;-61
2022/04/23 01:52:54;;;;;;;4.85;3.00;;;13.10;68.00;;;;;;5078798;28;20088;-61
2022/04/23 01:55:20;;;;;;;4.00;2.95;;;13.10;67.90;;;;;;5074049;28;20020;-66
2022/04/23 01:57:46;;;;;;;4.53;3.40;;;13.10;67.70;;;;;;5094071;28;20056;-61
2022/04/23 02:00:15;;;;;;;4.95;2.67;;;13.10;67.60;;;;;;5099241;28;20086;-61
2022/04/23 02:02:42;;;;;;;4.18;3.58;;;13.10;67.60;;;;;;5091572;28;20035;-66
2022/04/23 02:05:08;;;;;;;5.30;3.58;;;13.20;67.80;;;;;;5084192;28;20756;-66
2022/04/23 02:07:39;;;;;;;4.82;2.75;;;13.10;67.70;;;;;;5085614;28;20025;-66
2022/04/23 02:10:10;;;;;;;5.93;3.33;;;13.10;67.90;;;;;;5084157;28;20021;-66
2022/04/23 02:12:38;;;;;;;4.20;3.63;;;13.10;67.90;;;;;;5084507;28;20024;-66
2022/04/23 02:15:09;;;;;;;5.32;3.70;;;13.10;68.10;;;;;;5090993;28;20271;-66
2022/04/23 02:17:39;;;;;;;5.07;4.20;;;13.10;68.00;;;;;;5088635;28;20066;-66
2022/04/23 02:20:08;;;;;;;5.47;3.72;;;13.10;68.10;;;;;;5104175;28;20430;-66
2022/04/23 02:22:33;;;;;;;4.15;3.30;;;13.10;68.10;;;;;;5090763;28;20027;-66
2022/04/23 02:24:59;;;;;;;5.93;3.83;;;13.10;68.00;;;;;;5069432;28;20086;-66
2022/04/23 02:27:25;;;;;;;8.70;4.63;;;13.10;67.90;;;;;;5069767;28;20055;-66
2022/04/23 02:29:52;;;;;;;3.92;3.58;;;13.10;68.00;;;;;;5102777;27;20025;-66
2022/04/23 02:32:18;;;;;;;5.00;3.47;;;13.10;68.10;;;;;;5091902;28;20035;-66
2022/04/23 02:34:44;;;;;;;7.88;4.13;;;13.10;68.20;;;;;;5091249;28;20013;-66
2022/04/23 02:37:11;;;;;;;7.95;4.47;;;13.10;68.20;;;;;;5101983;28;20024;-66
2022/04/23 02:39:38;;;;;;;14.38;4.20;;;13.00;68.10;;;;;;5089175;28;20099;-66
2022/04/23 02:42:05;;;;;;;5.30;3.53;;;13.00;68.20;;;;;;5091892;28;20036;-66
2022/04/23 02:44:31;;;;;;;3.92;3.15;;;13.00;68.30;;;;;;5086395;28;20035;-66
2022/04/23 02:46:57;;;;;;;6.93;4.57;;;13.00;68.30;;;;;;5091708;28;20143;-66
2022/04/23 02:49:22;;;;;;;6.47;3.90;;;13.00;68.50;;;;;;5087641;28;20577;-61
2022/04/23 02:51:48;;;;;;;13.27;4.03;;;13.00;68.50;;;;;;5079547;28;20017;-61
2022/04/23 02:54:14;;;;;;;8.07;4.05;;;12.90;68.50;;;;;;5084879;28;20557;-61
2022/04/23 02:56:40;;;;;;;7.72;5.75;;;12.90;68.40;;;;;;5072588;28;20029;-66
2022/04/23 02:59:06;;;;;;;4.32;3.50;;;12.90;68.70;;;;;;5086518;28;20028;-66
2022/04/23 03:01:36;;;;;;;6.65;4.38;;;12.90;68.70;;;;;;5079418;28;20463;-66
2022/04/23 03:04:03;;;;;;;6.35;4.30;;;12.80;68.80;;;;;;5081796;28;20040;-66
2022/04/23 03:06:30;;;;;;;6.05;4.43;;;12.80;69.00;;;;;;5077877;28;20056;-66
2022/04/23 03:08:56;;;;;;;6.10;3.88;;;12.80;69.10;;;;;;5078754;28;20524;-66
2022/04/23 03:11:23;;;;;;;4.13;3.40;;;12.80;69.10;;;;;;5071199;28;20663;-66
2022/04/23 03:13:48;;;;;;;5.93;3.60;;;12.80;69.00;;;;;;5075931;28;20468;-66
2022/04/23 03:16:14;;;;;;;5.45;3.80;;;12.80;69.10;;;;;;5085357;28;20041;-66
2022/04/23 03:18:40;;;;;;;5.28;3.63;;;12.70;69.10;;;;;;5101825;28;20493;-66
2022/04/23 03:21:05;;;;;;;6.22;3.70;;;12.80;69.10;;;;;;5097983;28;20071;-66
2022/04/23 03:23:31;;;;;;;5.50;3.78;;;12.70;69.30;;;;;;5097724;28;20041;-66
2022/04/23 03:25:57;;;;;;;5.25;3.78;;;12.70;69.30;;;;;;5087990;28;20037;-66
2022/04/23 03:28:23;;;;;;;8.00;4.38;;;12.60;69.40;;;;;;5089253;28;20038;-66
2022/04/23 03:30:49;;;;;;;5.45;3.60;;;12.60;69.60;;;;;;5084040;28;20062;-66
2022/04/23 03:33:14;;;;;;;9.27;4.50;;;12.60;69.60;;;;;;5092044;28;20036;-66
2022/04/23 03:35:40;;;;;;;8.45;4.15;;;12.60;69.60;;;;;;5091558;28;20040;-61
2022/04/23 03:38:06;;;;;;;5.00;3.55;;;12.50;69.70;;;;;;5069839;28;20056;-61
2022/04/23 03:40:32;;;;;;;5.05;4.15;;;12.50;69.80;;;;;;5089257;28;20089;-61
2022/04/23 03:42:57;;;;;;;5.22;3.13;;;12.50;69.90;;;;;;5085585;28;20044;-62
2022/04/23 03:45:24;;;;;;;5.85;3.92;;;12.50;70.00;;;;;;5093046;28;20523;-61
2022/04/23 03:47:50;;;;;;;6.85;4.07;;;12.50;70.20;;;;;;5091284;28;20101;-66
2022/04/23 03:50:16;;;;;;;8.95;4.47;;;12.40;70.10;;;;;;5090549;28;20475;-66
2022/04/23 03:52:42;;;;;;;6.63;5.07;;;12.40;70.10;;;;;;5078640;28;20085;-60
2022/04/23 03:55:08;;;;;;;10.55;4.40;;;12.40;70.20;;;;;;5080891;28;20021;-61
2022/04/23 03:57:45;;;;;;;6.25;3.35;;;12.40;70.20;;;;;;5084700;28;20046;-66
2022/04/23 04:00:11;;;;;;;5.47;4.97;;;12.40;70.20;;;;;;5077101;28;20479;-66
2022/04/23 04:02:37;;;;;;;4.60;3.85;;;12.40;70.20;;;;;;5084729;28;20303;-60
2022/04/23 04:05:04;;;;;;;7.50;4.45;;;12.30;70.30;;;;;;5083083;28;20396;-61
2022/04/23 04:07:30;;;;;;;5.53;3.70;;;12.30;70.50;;;;;;5097084;28;20027;-65
2022/04/23 04:09:55;;;;;;;7.28;3.65;;;12.30;70.60;;;;;;5086828;28;20084;-65
2022/04/23 04:12:21;;;;;;;4.82;4.05;;;12.30;70.60;;;;;;5084352;28;20035;-65
2022/04/23 04:14:47;;;;;;;5.45;3.75;;;12.30;70.90;;;;;;5079777;28;20028;-65
2022/04/23 04:17:15;;;;;;;5.03;4.20;;;12.30;70.90;;;;;;5092516;28;20024;-65
2022/04/23 04:19:41;;;;;;;5.57;3.50;;;12.30;70.80;;;;;;5090268;28;20427;-59
2022/04/23 04:22:08;;;;;;;4.75;3.72;;;12.30;70.70;;;;;;5092995;28;20032;-59
2022/04/23 04:24:34;;;;;;;5.80;4.80;;;12.30;70.70;;;;;;5083388;28;20032;-59
2022/04/23 04:27:01;;;;;;;4.25;3.22;;;12.30;70.80;;;;;;5087659;28;20043;-65
2022/04/23 04:29:27;;;;;;;4.75;4.13;;;12.30;70.80;;;;;;5085595;28;20036;-65
2022/04/23 04:31:53;;;;;;;5.60;4.53;;;12.20;71.10;;;;;;5074644;28;20059;-65
2022/04/23 04:34:30;;;;;;;5.68;3.88;;;12.10;71.30;;;;;;5099685;28;20031;-65
2022/04/23 04:37:06;;;;;;;4.68;3.35;;;12.10;71.40;;;;;;5090736;28;20412;-65
2022/04/23 04:39:32;;;;;;;5.60;4.10;;;12.10;71.60;;;;;;5083697;28;20107;-65
2022/04/23 04:41:58;;;;;;;4.95;3.47;;;12.10;71.70;;;;;;5079679;28;20115;-66
2022/04/23 04:44:24;;;;;;;5.45;4.43;;;12.10;71.80;;;;;;5075851;28;20089;-61
2022/04/23 04:46:49;;;;;;;6.43;3.60;;;12.00;71.60;;;;;;5085330;28;20028;-59
2022/04/23 04:49:15;;;;;;;3.97;3.60;;;12.00;71.60;;;;;;5073009;28;20049;-65
2022/04/23 04:51:41;;;;;;;7.30;4.03;;;12.00;71.60;;;;;;5080819;28;20024;-65
2022/04/23 04:54:07;;;;;;;3.58;2.85;;;12.00;71.60;;;;;;5082257;28;20071;-65
2022/04/23 04:56:33;;;;;;;6.93;3.05;;;12.00;71.80;;;;;;5083343;28;20107;-66
2022/04/23 04:59:00;;;;;;;5.90;3.80;;;11.90;71.80;;;;;;5073577;28;20098;-65
2022/04/23 05:01:26;;;;;;;6.38;4.10;;;11.90;72.00;;;;;;5068395;28;20027;-60
2022/04/23 05:03:53;;;;;;;6.25;3.75;;;11.90;72.10;;;;;;5069510;28;20403;-60
2022/04/23 05:06:19;;;;;;;4.80;4.03;;;11.90;72.50;;;;;;5081243;28;20132;-66
2022/04/23 05:08:45;;;;;;;3.78;3.00;;;11.80;72.70;;;;;;5080450;28;20021;-66
2022/04/23 05:11:11;;;;;;;4.53;3.03;;;11.80;72.60;;;;;;5086314;28;20430;-66
2022/04/23 05:13:38;;;;;;;6.30;3.83;;;11.80;72.70;;;;;;5076665;28;20040;-66
2022/04/23 05:16:07;;;;;;;6.90;4.55;;;11.80;72.80;;;;;;5084728;28;20035;-66
2022/04/23 05:18:34;;;;;;;5.03;3.88;;;11.80;72.90;;;;;;5078363;28;20439;-66
2022/04/23 05:20:59;;;;;;;7.07;4.15;;;11.80;73.00;;;;;;5073074;28;20115;-66
2022/04/23 05:23:25;;;;;;;5.65;3.80;;;11.80;73.00;;;;;;5084228;28;20104;-60
2022/04/23 05:25:51;;;;;;;4.80;3.85;;;11.80;73.20;;;;;;5077754;28;20039;-61
2022/04/23 05:28:17;;;;;;;5.95;3.63;;;11.80;73.20;;;;;;5075944;28;20137;-60
2022/04/23 05:30:44;;;;;;;4.25;3.25;;;11.80;73.10;;;;;;5097144;28;20370;-60
2022/04/23 05:33:11;;;;;;;6.20;3.78;;;11.90;73.10;;;;;;5101982;28;20024;-61
2022/04/23 05:35:36;;;;;;;4.45;2.85;;;11.90;73.10;;;;;;5093482;28;20028;-60
2022/04/23 05:38:02;;;;;;;6.03;3.47;;;11.90;73.10;;;;;;5086779;28;20039;-60
2022/04/23 05:40:28;;;;;;;5.78;2.97;;;11.90;73.10;;;;;;5092297;28;20035;-66
2022/04/23 05:42:58;;;;;;;4.95;3.13;;;11.90;73.10;;;;;;5088643;28;20043;-60
2022/04/23 05:45:28;;;;;;;5.15;2.88;;;11.90;73.00;;;;;;5088297;28;20042;-60
2022/04/23 05:47:55;;;;;;;9.50;4.45;;;11.90;72.90;;;;;;5078643;28;20048;-61
2022/04/23 05:50:21;;;;;;;7.25;3.75;;;11.90;73.10;;;;;;5081404;28;20032;-65
2022/04/23 05:52:46;;;;;;;4.78;3.30;;;11.90;73.20;;;;;;5089818;28;20503;-66
2022/04/23 05:55:12;;;;;;;4.07;3.28;;;11.80;73.20;;;;;;5087418;28;20126;-65
2022/04/23 05:57:38;;;;;;;7.28;3.15;;;11.90;73.20;;;;;;5098017;28;20088;-65
2022/04/23 06:00:06;;;;;;;4.65;3.05;;;11.90;73.30;;;;;;5098516;28;20050;-65
2022/04/23 06:02:32;;;;;;;5.10;3.47;;;11.90;73.20;;;;;;5078031;28;20178;-65
2022/04/23 06:04:59;;;;;;;5.95;3.38;;;11.90;73.20;;;;;;5089586;28;20553;-60
2022/04/23 06:07:24;;;;;;;3.65;2.75;;;11.90;73.20;;;;;;5092914;28;20032;-66
2022/04/23 06:09:50;;;;;;;4.25;3.20;;;11.90;73.10;;;;;;5073339;28;20024;-60
2022/04/23 06:12:16;;;;;;;4.75;2.92;;;11.90;73.00;;;;;;5080927;28;20432;-60
2022/04/23 06:14:42;;;;;;;3.80;3.00;;;11.90;73.00;;;;;;5088482;28;20417;-60
2022/04/23 06:17:12;;;;;;;2.85;2.42;;;11.90;73.10;;;;;;5094060;28;20428;-60
2022/04/23 06:19:41;;;;;;;6.13;3.33;;;12.00;73.20;;;;;;5081058;28;20058;-60
2022/04/23 06:22:07;;;;;;;6.97;3.00;;;12.00;73.10;;;;;;5085393;28;20054;-65
2022/04/23 06:24:33;;;;;;;4.32;3.55;;;12.00;73.00;;;;;;5091381;28;20492;-66
2022/04/23 06:26:59;;;;;;;3.13;2.55;;;12.00;72.90;;;;;;5093244;28;20470;-60
2022/04/23 06:29:25;;;;;;;4.60;3.17;;;12.00;72.80;;;;;;5076844;28;20038;-65
2022/04/23 06:31:51;;;;;;;5.28;3.00;;;12.00;72.90;;;;;;5103108;28;20027;-66
2022/04/23 06:34:16;;;;;;;4.22;3.22;;;12.10;73.00;;;;;;5096610;28;20023;-66
2022/04/23 06:36:42;;;;;;;5.53;3.03;;;12.00;73.00;;;;;;5087380;28;20411;-66
2022/04/23 06:39:08;;;;;;;4.60;3.10;;;12.10;73.00;;;;;;5089437;28;20483;-66
2022/04/23 06:41:34;;;;;;;3.78;2.97;;;12.20;72.90;;;;;;5098224;28;20027;-61
2022/04/23 06:44:00;;;;;;;5.72;3.38;;;12.30;72.70;;;;;;5081764;28;20159;-61
2022/04/23 06:46:26;;;;;;;5.18;3.47;;;12.40;72.70;;;;;;5081690;28;20046;-60
2022/04/23 06:48:51;;;;;;;3.67;3.30;;;12.40;72.50;;;;;;5101044;28;20139;-60
2022/04/23 06:51:17;;;;;;;4.10;2.75;;;12.40;72.40;;;;;;5076357;28;20478;-61
2022/04/23 06:53:43;;;;;;;4.00;2.50;;;12.40;72.30;;;;;;5094490;28;20031;-60
2022/04/23 06:56:09;;;;;;;3.95;2.83;;;12.50;72.20;;;;;;5088427;28;20032;-60
2022/04/23 06:58:35;;;;;;;3.95;3.10;;;12.60;72.00;;;;;;5088266;28;20028;-61
2022/04/23 07:01:01;;;;;;;4.70;3.55;;;12.60;71.90;;;;;;5090671;28;20439;-60
2022/04/23 07:03:27;;;;;;;5.32;3.35;;;12.70;71.80;;;;;;5094260;28;20051;-60
2022/04/23 07:05:53;;;;;;;4.65;3.35;;;12.70;71.70;;;;;;5092702;28;20059;-61
2022/04/23 07:08:19;;;;;;;5.88;3.70;;;12.80;71.80;;;;;;5088652;28;20526;-61
2022/04/23 07:10:44;;;;;;;6.63;3.70;;;12.80;71.80;;;;;;5083237;28;20054;-60
2022/04/23 07:13:11;;;;;;;4.53;3.88;;;12.90;71.60;;;;;;5076640;28;20368;-60
2022/04/23 07:15:39;;;;;;;7.55;3.60;;;12.90;71.40;;;;;;5078663;28;20056;-66
2022/04/23 07:18:06;;;;;;;4.22;3.15;;;12.90;71.30;;;;;;5079454;28;20272;-66
2022/04/23 07:20:31;;;;;;;5.05;3.83;;;13.00;71.10;;;;;;5077872;28;20262;-67
2022/04/23 07:25:41;;;;;;;4.75;3.60;;;13.10;70.90;;;;;;5087385;28;20086;-65
2022/04/23 07:28:07;;;;;;;4.30;3.78;;;13.20;70.70;;;;;;5085196;28;20421;-66
2022/04/23 07:30:34;;;;;;;4.07;3.22;;;13.30;70.70;;;;;;5088541;28;20035;-66
2022/04/23 07:33:00;;;;;;;6.15;4.00;;;13.30;70.60;;;;;;5087916;28;20028;-66
2022/04/23 07:38:18;;;;;;;4.20;3.47;;;13.50;70.30;;;;;;5079064;28;20098;-66
2022/04/23 07:40:44;;;;;;;3.97;2.83;;;13.50;70.00;;;;;;5075255;28;20094;-66
2022/04/23 07:43:12;;;;;;;5.35;3.78;;;13.60;69.80;;;;;;5074674;28;20491;-66
2022/04/23 07:45:43;;;;;;;7.75;4.38;;;13.60;69.70;;;;;;5068428;28;20488;-60
2022/04/23 07:48:10;;;;;;;4.07;3.67;;;13.60;69.60;;;;;;5061897;28;20459;-60
2022/04/23 07:50:37;;;;;;;5.35;3.40;;;13.70;69.60;;;;;;5080017;28;20467;-60
2022/04/23 07:53:04;;;;;;;6.82;4.45;;;13.70;69.50;;;;;;5058595;28;20037;-60
2022/04/23 07:55:33;;;;;;;5.30;4.20;;;13.80;69.30;;;;;;5069250;28;20036;-65
2022/04/23 07:57:59;;;;;;;8.23;4.35;;;13.90;69.10;;;;;;5065410;28;20040;-60
2022/04/23 08:00:26;;;;;;;4.25;3.67;;;13.90;68.90;;;;;;5103024;28;20059;-66
2022/04/23 08:02:52;;;;;;;5.70;4.07;;;14.00;68.90;;;;;;5081314;28;20386;-65
2022/04/23 08:05:18;;;;;;;4.18;3.47;;;14.10;68.80;;;;;;5073559;28;20039;-60
2022/04/23 08:07:44;;;;;;;4.88;3.53;;;14.10;68.60;;;;;;5064024;28;20040;-60
2022/04/23 08:10:11;;;;;;;5.40;3.55;;;14.10;68.40;;;;;;5067015;28;20395;-60
2022/04/23 08:12:37;;;;;;;6.72;3.65;;;14.20;68.20;;;;;;5061468;28;20112;-60
2022/04/23 08:15:05;;;;;;;4.75;3.70;;;14.30;68.10;;;;;;5077660;28;20051;-65
2022/04/23 08:17:31;;;;;;;5.07;4.03;;;14.30;68.10;;;;;;5067255;28;20067;-66
2022/04/23 08:19:56;;;;;;;5.95;4.30;;;14.40;67.90;;;;;;5067077;28;20539;-60
2022/04/23 08:22:22;;;;;;;6.00;3.50;;;14.40;67.80;;;;;;5056882;28;20141;-60
2022/04/23 08:24:48;;;;;;;4.53;4.03;;;14.40;67.70;;;;;;5062286;28;20380;-60
2022/04/23 08:27:14;;;;;;;5.25;3.22;;;14.40;67.60;;;;;;5062788;28;20096;-66
2022/04/23 08:30:40;;;;;;;7.25;3.90;;;14.50;67.40;;;;;;5066926;28;20094;-66
2022/04/23 08:32:34;;;;;;;4.72;3.75;;;14.60;67.20;;;;;;5050387;28;20040;-60
2022/04/23 08:35:00;;;;;;;7.22;3.80;;;14.70;67.20;;;;;;5066321;28;20391;-66
2022/04/23 08:37:26;;;;;;;7.43;5.13;;;14.70;66.90;;;;;;5063606;28;20032;-61
2022/04/23 08:39:52;;;;;;;7.63;4.07;;;14.80;66.40;;;;;;5068386;28;20045;-66
2022/04/23 08:42:19;;;;;;;5.95;4.05;;;14.90;66.40;;;;;;5055897;28;20376;-66
2022/04/23 08:44:45;;;;;;;3.78;3.33;;;15.00;66.30;;;;;;5063764;28;20026;-65
2022/04/23 08:47:11;;;;;;;6.68;4.72;;;15.10;66.10;;;;;;5085908;28;20028;-65
2022/04/23 08:49:41;;;;;;;5.90;4.63;;;15.20;65.90;;;;;;5064231;28;20032;-65
2022/04/23 08:52:17;;;;;;;5.95;4.05;;;15.30;65.70;;;;;;5067160;28;20527;-65
2022/04/23 08:54:43;;;;;;;6.13;3.85;;;15.40;65.60;;;;;;5057689;28;20154;-65
2022/04/23 08:57:09;;;;;;;6.72;4.78;;;15.50;65.20;;;;;;5055084;28;20028;-66
2022/04/23 08:59:35;;;;;;;6.63;4.07;;;15.60;64.90;;;;;;5051798;28;20037;-60
2022/04/23 09:02:02;;;;;;;4.22;3.58;;;15.70;64.60;;;;;;5057049;28;20040;-60
2022/04/23 09:04:29;;;;;;;6.30;4.25;;;15.80;64.00;;;;;;5071862;28;20043;-61
2022/04/23 09:06:55;;;;;;;5.63;3.78;;;15.80;63.70;;;;;;5059603;28;20035;-59
2022/04/23 09:09:22;;;;;;;5.47;3.80;;;15.90;63.40;;;;;;5062916;28;20388;-59
2022/04/23 09:11:58;;;;;;;5.25;3.97;;;15.90;63.20;;;;;;5078748;28;20013;-59
2022/04/23 09:14:28;;;;;;;6.35;4.47;;;16.00;63.20;;;;;;5076866;28;20122;-59
2022/04/23 09:25:50;;;;;;;5.13;4.38;;;16.30;62.30;;;;;;5081781;28;20089;-66
2022/04/23 09:28:23;;;;;;;8.18;4.97;;;16.30;61.80;;;;;;5045036;28;20063;-60
2022/04/23 09:30:54;;;;;;;6.18;3.80;;;16.30;61.70;;;;;;5057036;28;20388;-60
2022/04/23 09:33:27;;;;;;;6.60;4.75;;;16.30;61.50;;;;;;5057962;28;20494;-66
2022/04/23 09:36:03;;;;;;;6.05;4.53;;;16.40;61.40;;;;;;5064346;28;20025;-66
2022/04/23 09:38:30;;;;;;;5.97;4.05;;;16.50;60.70;;;;;;5062519;28;20112;-60
2022/04/23 09:40:57;;;;;;;4.53;3.58;;;16.60;60.70;;;;;;5057629;28;20401;-60
2022/04/23 09:43:38;;;;;;;6.15;4.78;;;16.70;61.30;;;;;;5065179;28;20041;-61
2022/04/23 09:46:07;;;;;;;6.13;3.90;;;16.80;60.40;;;;;;5079767;28;20119;-60
2022/04/23 09:48:34;;;;;;;6.53;4.60;;;16.90;60.30;;;;;;5054321;28;20419;-61
2022/04/23 09:51:01;;;;;;;4.95;3.53;;;17.00;59.60;;;;;;5072758;28;20454;-66
2022/04/23 09:53:28;;;;;;;5.00;3.88;;;17.10;59.00;;;;;;5072128;28;20032;-60
2022/04/23 09:56:01;;;;;;;6.50;3.80;;;17.20;58.80;;;;;;5072122;28;20062;-61
2022/04/23 09:58:29;;;;;;;7.25;3.60;;;17.20;58.80;;;;;;5060202;28;20138;-60
2022/04/23 10:00:56;;;;;;;5.35;4.28;;;17.30;58.50;;;;;;5078311;28;20036;-66
2022/04/23 10:03:28;;;;;;;8.25;5.15;;;17.50;58.30;;;;;;5066041;28;20041;-66
2022/04/23 10:05:54;;;;;;;5.47;4.18;;;17.50;57.20;;;;;;5055041;28;20344;-61
2022/04/23 10:08:26;;;;;;;4.55;3.25;;;17.40;57.30;;;;;;5075984;28;20099;-61
2022/04/23 10:11:13;;;;;;;7.05;3.67;;;17.50;57.70;;;;;;5053720;28;20106;-60
2022/04/23 10:13:41;;;;;;;5.88;4.32;;;17.50;57.70;;;;;;5055785;28;20032;-60
2022/04/23 10:16:08;;;;;;;6.28;3.30;;;17.50;57.40;;;;;;5057204;28;20474;-60
2022/04/23 10:18:38;;;;;;;6.90;3.35;;;17.70;57.60;;;;;;5068007;28;20033;-60
2022/04/23 10:21:08;;;;;;;8.25;3.72;;;17.90;57.50;;;;;;5048252;28;20052;-60
2022/04/23 10:24:08;;;;;;;9.05;3.95;;;18.10;56.60;;;;;;5087715;28;20028;-60
2022/04/23 10:26:48;;;;;;;6.93;4.28;;;18.30;55.60;;;;;;5062216;28;20028;-61
2022/04/23 10:29:15;;;;;;;8.23;3.95;;;18.30;55.30;;;;;;5077863;28;20111;-61
2022/04/23 10:31:42;;;;;;;8.48;3.97;;;18.40;55.50;;;;;;5052916;28;20017;-60
2022/04/23 10:34:31;;;;;;;5.90;4.13;;;18.50;55.30;;;;;;5071604;28;20032;-66
2022/04/23 10:37:20;;;;;;;4.50;3.25;;;18.50;54.80;;;;;;5063766;28;20458;-61
2022/04/23 10:40:05;;;;;;;3.85;3.28;;;18.60;54.70;;;;;;5073731;28;20024;-66
2022/04/23 10:42:32;;;;;;;5.93;3.03;;;18.80;54.80;;;;;;5064860;28;20043;-67
2022/04/23 10:45:03;;;;;;;5.32;3.45;;;18.90;54.70;;;;;;5058644;28;20029;-67
2022/04/23 10:47:34;;;;;;;4.50;2.95;;;19.00;54.00;;;;;;5056710;28;20047;-59
2022/04/23 10:52:40;;;;;;;3.78;2.78;;;19.20;53.70;;;;;;5071132;28;20119;-61
2022/04/23 10:55:08;;;;;;;4.28;3.67;;;19.30;54.10;;;;;;5064168;28;20096;-61
2022/04/23 10:57:34;;;;;;;8.45;4.05;;;19.60;53.90;;;;;;5068665;28;20029;-61
2022/04/23 11:00:17;;;;;;;4.78;3.80;;;19.80;53.10;;;;;;5066219;28;20082;-67
2022/04/23 11:02:46;;;;;;;;;;;19.90;52.40;;;;;;5058102;28;20025;-61
2022/04/23 11:13:54;;;;;;;4.13;2.90;;;19.50;51.40;;;;;;5060668;28;20062;-59
2022/04/23 11:16:22;;;;;;;4.70;3.95;;;19.40;52.20;;;;;;5086570;28;20490;-61
2022/04/23 11:18:53;;;;;;;4.90;3.33;;;19.40;51.30;;;;;;5068425;28;20432;-65
2022/04/23 11:21:20;;;;;;;4.70;3.67;;;19.40;51.60;;;;;;5080533;28;20460;-66
2022/04/23 11:23:47;;;;;;;4.15;3.25;;;19.50;51.40;;;;;;5061319;28;20291;-66
2022/04/23 11:26:18;;;;;;;6.72;3.40;;;19.60;51.50;;;;;;5065779;28;20444;-66
2022/04/23 11:28:45;;;;;;;5.68;3.95;;;19.70;51.20;;;;;;5059629;28;20379;-66
2022/04/23 11:31:16;;;;;;;4.45;3.75;;;19.80;50.50;;;;;;5064783;28;20025;-60
2022/04/23 11:33:56;;;;;;;6.75;3.92;;;19.90;50.30;;;;;;5061560;28;20107;-60
2022/04/23 11:36:33;;;;;;;6.20;4.35;;;19.90;50.80;;;;;;5068434;28;20368;-60
2022/04/23 11:39:04;;;;;;;6.18;4.30;;;20.10;50.40;;;;;;5070981;28;20383;-60
2022/04/23 11:41:34;;;;;;;6.13;3.70;;;20.20;50.00;;;;;;5060258;28;20032;-60
2022/04/23 11:44:45;;;;;;;5.25;3.17;;;20.10;49.90;;;;;;5088844;28;20112;-60
2022/04/23 11:47:12;;;;;;;5.43;3.92;;;20.10;49.20;;;;;;5072734;28;20040;-66
2022/04/23 11:49:38;;;;;;;5.90;3.45;;;20.00;49.10;;;;;;5070018;28;20040;-61
2022/04/23 11:52:14;;;;;;;7.28;4.47;;;20.00;48.80;;;;;;5073129;28;20111;-61
2022/04/23 11:54:44;;;;;;;14.32;4.47;;;19.90;49.00;;;;;;5080165;28;20032;-60
2022/04/23 11:57:16;;;;;;;5.93;4.22;;;19.90;49.20;;;;;;5083022;28;20120;-61
2022/04/23 11:59:42;;;;;;;8.52;4.72;;;19.90;49.20;;;;;;5067052;28;20033;-66
2022/04/23 12:02:24;;;;;;;6.53;4.35;;;20.00;49.30;;;;;;5067218;28;20036;-60
2022/04/23 12:04:52;;;;;;;4.80;3.53;;;20.10;49.30;;;;;;5058330;28;20033;-60
2022/04/23 12:07:20;;;;;;;6.57;3.92;;;20.20;48.70;;;;;;5069180;28;20675;-59
2022/04/23 12:09:52;;;;;;;6.40;3.42;;;20.30;48.60;;;;;;5072881;28;20031;-59
2022/04/23 12:12:19;;;;;;;;;;;20.20;48.40;;;;;;5058631;28;20051;-60
2022/04/23 12:14:50;;;;;;;5.90;3.38;;;20.20;47.90;;;;;;5069331;28;20390;-66
2022/04/23 12:17:30;;;;;;;6.50;3.95;;;20.10;48.50;;;;;;5068164;28;20078;-66
2022/04/23 12:19:57;;;;;;;4.60;3.30;;;20.10;48.10;;;;;;5055859;28;20434;-66
2022/04/23 12:22:29;;;;;;;7.03;3.85;;;20.00;48.20;;;;;;5076455;28;20032;-66
2022/04/23 12:25:08;;;;;;;3.53;3.22;;;20.00;48.10;;;;;;5066812;28;20036;-66
2022/04/23 12:27:55;;;;;;;5.40;3.40;;;20.10;47.50;;;;;;5057787;28;20194;-66
2022/04/23 12:42:06;;;;;;;4.78;3.55;;;20.50;46.60;;;;;;5050445;28;20052;-60
2022/04/23 12:44:36;;;;;;;4.70;2.50;;;20.50;46.80;;;;;;5073038;28;20434;-66
2022/04/23 12:47:06;;;;;;;4.90;3.20;;;20.70;46.70;;;;;;5075006;28;20033;-68
2022/04/23 12:49:48;;;;;;;5.82;2.90;;;20.90;45.70;;;;;;5070434;28;20048;-59
2022/04/23 12:52:23;;;;;;;7.45;3.88;;;21.20;46.00;;;;;;5078784;28;22279;-59
2022/04/23 12:55:17;;;;;;;5.57;3.28;;;21.30;45.40;;;;;;5067727;28;20040;-65
2022/04/23 12:57:43;;;;;;;5.40;3.28;;;21.50;45.00;;;;;;5083679;28;20487;-60
2022/04/23 13:00:11;;;;;;;5.15;2.42;;;21.60;43.80;;;;;;5070213;28;20025;-60
2022/04/23 13:02:39;;;;;;;5.45;3.05;;;21.70;43.80;;;;;;5080552;28;20131;-63
2022/04/23 13:05:08;;;;;;;4.85;3.38;;;21.70;43.70;;;;;;5073678;28;20055;-63
2022/04/23 13:10:18;;;;;;;4.53;3.38;;;21.80;44.30;;;;;;5077792;28;20043;-63
2022/04/23 13:12:44;;;;;;;5.70;3.33;;;22.00;43.90;;;;;;5068821;28;20475;-64
2022/04/23 13:15:11;;;;;;;4.63;3.42;;;22.20;43.50;;;;;;5090061;28;20082;-64
2022/04/23 13:17:38;;;;;;;4.40;2.45;;;22.20;42.90;;;;;;5090292;28;20085;-64
2022/04/23 13:20:10;;;;;;;4.32;3.53;;;22.30;43.00;;;;;;5066935;28;20078;-64
2022/04/23 13:22:36;;;;;;;;;;;22.40;42.60;;;;;;5069863;28;20108;-65
2022/04/23 13:25:05;;;;;;;4.75;3.42;;;22.40;41.80;;;;;;5070668;28;19987;-65
2022/04/23 13:27:32;;;;;;;5.10;2.42;;;22.50;42.30;;;;;;5067833;28;20400;-68
2022/04/23 13:29:58;;;;;;;5.53;3.50;;;22.40;42.30;;;;;;5078613;28;20067;-68
2022/04/23 13:32:24;;;;;;;4.20;2.83;;;22.50;42.50;;;;;;5065164;28;20024;-67